createdAt,value
2023-05-11T09:09:09.167Z,4.35
2023-05-11T09:11:36.157Z,4.07
2023-05-11T09:14:03.356Z,4.80
2023-05-11T09:16:36.635Z,3.90
2023-05-11T09:19:05.354Z,4.13
2023-05-11T09:21:32.537Z,4.50
2023-05-11T09:24:00.631Z,4.05
2023-05-11T09:26:31.810Z,4.15
2023-05-11T09:31:43.890Z,4.05
2023-05-11T09:34:15.195Z,3.90
2023-05-11T09:36:50.008Z,4.43
2023-05-11T09:41:50.315Z,3.88
2023-05-11T09:44:18.301Z,3.38
2023-05-11T09:46:45.899Z,2.97
2023-05-11T09:49:12.731Z,3.53
2023-05-11T09:51:41.092Z,3.15
2023-05-11T09:54:21.668Z,4.03
2023-05-11T09:56:54.355Z,3.70
2023-05-11T09:59:38.405Z,3.40
2023-05-11T10:02:24.818Z,3.92
2023-05-11T10:04:57.624Z,3.00
2023-05-11T10:07:32.716Z,3.45
2023-05-11T10:10:22.791Z,2.97
2023-05-11T10:12:50.248Z,3.28
2023-05-11T10:15:21.269Z,2.80
2023-05-11T10:17:49.069Z,3.03
2023-05-11T10:20:16.060Z,2.70
2023-05-11T10:22:43.093Z,2.80
2023-05-11T10:25:10.279Z,3.00
2023-05-11T10:27:37.891Z,3.20
2023-05-11T10:30:06.820Z,3.35
2023-05-11T10:32:37.973Z,2.47
2023-05-11T10:35:06.497Z,3.00
2023-05-11T10:37:33.748Z,2.85
2023-05-11T10:40:00.525Z,3.55
2023-05-11T10:42:52.559Z,3.20
2023-05-11T10:45:25.353Z,2.20
2023-05-11T10:48:00.512Z,2.30
2023-05-11T10:50:36.519Z,2.63
2023-05-11T10:53:15.022Z,2.38
2023-05-11T10:58:10.472Z,2.17
2023-05-11T11:00:43.906Z,2.20
2023-05-11T11:03:15.204Z,2.40
2023-05-11T11:05:43.986Z,2.08
2023-05-11T11:08:11.272Z,2.28
2023-05-11T11:10:39.872Z,2.10
2023-05-11T11:13:08.883Z,2.10
2023-05-11T11:15:54.301Z,1.80
2023-05-11T11:18:34.789Z,2.10
2023-05-11T11:21:02.127Z,2.55
2023-05-11T11:23:41.802Z,2.00
2023-05-11T11:26:15.334Z,2.00
2023-05-11T11:28:54.274Z,2.30
2023-05-11T11:31:29.662Z,1.90
2023-05-11T11:33:59.194Z,2.17
2023-05-11T11:36:55.736Z,2.67
2023-05-11T11:39:25.621Z,2.40
2023-05-11T11:42:07.240Z,3.03
2023-05-11T11:44:35.004Z,2.63
2023-05-11T11:47:20.721Z,2.17
2023-05-11T11:49:49.721Z,2.20
2023-05-11T11:52:28.911Z,2.50
2023-05-11T11:54:57.046Z,2.17
2023-05-11T11:57:35.909Z,2.75
2023-05-11T12:00:32.298Z,2.17
2023-05-11T12:03:12.418Z,2.03
2023-05-11T12:05:49.536Z,2.40
2023-05-11T12:08:35.819Z,2.45
2023-05-11T12:11:05.312Z,2.50
2023-05-11T12:13:43.783Z,2.45
2023-05-11T12:18:42.463Z,2.30
2023-05-11T12:21:22.259Z,2.88
2023-05-11T12:23:56.492Z,2.42
2023-05-11T12:26:24.524Z,2.88
2023-05-11T12:28:52.021Z,2.58
2023-05-11T12:31:19.324Z,2.38
2023-05-11T12:33:50.483Z,2.65
2023-05-11T12:36:18.312Z,2.30
2023-05-11T12:38:49.088Z,2.20
2023-05-11T12:41:23.129Z,3.35
2023-05-11T12:43:54.256Z,3.00
2023-05-11T12:46:22.151Z,3.63
2023-05-11T12:48:50.616Z,3.97
2023-05-11T12:51:45.095Z,3.80
2023-05-11T12:54:11.979Z,4.10
2023-05-11T12:56:49.006Z,3.75
2023-05-11T12:59:37.504Z,3.42
2023-05-11T13:02:23.833Z,2.95
2023-05-11T13:04:50.624Z,3.50
2023-05-11T13:07:28.319Z,2.70
2023-05-11T13:10:00.565Z,2.53
2023-05-11T13:12:30.222Z,2.97
2023-05-11T13:15:12.952Z,2.40
2023-05-11T13:17:42.223Z,2.50
2023-05-11T13:20:24.467Z,2.80
2023-05-11T13:22:51.501Z,3.08
2023-05-11T13:25:21.878Z,2.90
2023-05-11T13:27:49.028Z,3.25
2023-05-11T13:30:15.847Z,3.35
2023-05-11T13:32:42.649Z,3.92
2023-05-11T13:35:09.864Z,3.92
2023-05-11T13:37:36.731Z,4.05
2023-05-11T13:40:03.973Z,3.53
2023-05-11T13:42:30.793Z,4.10
2023-05-11T13:44:57.517Z,3.78
2023-05-11T13:47:24.606Z,4.50
2023-05-11T13:49:51.373Z,4.53
2023-05-11T13:52:18.133Z,4.00
2023-05-11T13:54:44.823Z,4.03
2023-05-11T13:57:11.553Z,4.22
2023-05-11T13:59:38.325Z,3.80
2023-05-11T14:02:05.202Z,3.80
2023-05-11T14:04:31.943Z,4.28
2023-05-11T14:06:59.050Z,4.47
2023-05-11T14:09:26.270Z,4.97
2023-05-11T14:11:52.914Z,4.40
2023-05-11T14:14:19.662Z,4.05
2023-05-11T14:16:46.420Z,4.22
2023-05-11T14:19:13.272Z,4.22
2023-05-11T14:21:40.086Z,4.18
2023-05-11T14:24:12.240Z,4.05
2023-05-11T14:26:40.243Z,4.05
2023-05-11T14:29:07.092Z,3.67
2023-05-11T14:31:35.381Z,2.72
2023-05-11T14:34:03.667Z,2.95
2023-05-11T14:36:31.628Z,2.88
2023-05-11T14:38:58.429Z,2.60
2023-05-11T14:41:25.602Z,2.25
2023-05-11T14:43:52.397Z,2.30
2023-05-11T14:46:19.547Z,2.00
2023-05-11T14:48:46.397Z,2.20
2023-05-11T14:51:13.175Z,2.22
2023-05-11T14:53:39.956Z,2.30
2023-05-11T14:56:07.314Z,1.98
2023-05-11T14:58:34.102Z,2.38
2023-05-11T15:01:00.866Z,2.88
2023-05-11T15:03:28.178Z,2.00
2023-05-11T15:05:54.963Z,2.05
2023-05-11T15:08:29.620Z,2.53
2023-05-11T15:10:58.024Z,2.10
2023-05-11T15:13:24.900Z,2.10
2023-05-11T15:15:52.183Z,2.25
2023-05-11T15:18:19.176Z,1.95
2023-05-11T15:20:46.712Z,2.15
2023-05-11T15:23:16.878Z,2.17
2023-05-11T15:25:44.708Z,2.60
2023-05-11T15:28:11.854Z,2.75
2023-05-11T15:30:38.720Z,2.20
2023-05-11T15:33:05.751Z,2.63
2023-05-11T15:35:35.668Z,2.38
2023-05-11T15:38:03.536Z,2.47
2023-05-11T15:40:30.666Z,2.35
2023-05-11T15:42:58.821Z,1.90
2023-05-11T15:45:26.195Z,2.00
2023-05-11T15:47:54.067Z,1.90
2023-05-11T15:50:21.411Z,1.88
2023-05-11T15:52:48.472Z,2.10
2023-05-11T15:55:15.276Z,2.08
2023-05-11T15:57:42.019Z,2.00
2023-05-11T16:00:12.818Z,2.22
2023-05-11T16:02:39.745Z,1.88
2023-05-11T16:05:06.874Z,1.73
2023-05-11T16:07:33.628Z,2.55
2023-05-11T16:10:00.506Z,2.60
2023-05-11T16:12:27.265Z,2.30
2023-05-11T16:14:54.059Z,2.95
2023-05-11T16:17:20.911Z,2.13
2023-05-11T16:19:47.738Z,2.10
2023-05-11T16:22:14.685Z,2.47
2023-05-11T16:24:41.588Z,2.40
2023-05-11T16:27:08.412Z,1.98
2023-05-11T16:29:36.665Z,1.70
2023-05-11T16:32:03.696Z,1.58
2023-05-11T16:34:30.450Z,1.65
2023-05-11T16:36:58.913Z,1.60
2023-05-11T16:39:26.888Z,1.60
2023-05-11T16:42:04.706Z,1.70
2023-05-11T16:44:32.116Z,1.85
2023-05-11T16:47:00.090Z,1.75
2023-05-11T16:49:27.621Z,2.10
2023-05-11T16:51:54.482Z,1.90
2023-05-11T16:54:21.207Z,1.77
2023-05-11T17:03:29.749Z,1.50
2023-05-11T17:05:56.721Z,2.00
2023-05-11T17:08:23.649Z,1.80
2023-05-11T17:10:51.169Z,1.75
